American Canyon, California
Current Conditions -  °F | °C
As of 8:54 PM on Wednesday 26 Nov 2014 (Local Time) from KAPC Reporting Station
Clear Clear  
Wind Chill: 45°   Ceiling: Unl
Heat Index: 47°   Visibility: 10mi
Dew Point: 44°   Wind: 5mph
Humidity: 90%   Direction: 310°NW
Pressure: 30.22"   Gusts: NA
Location:  38.17°N, 122.25°W
Report Text: KAPC 270454Z AUTO 31004KT 10SM CLR 08/07 A3022 RMK AO2 SLP226 T00830067
Loading
Personal Weather Stations






























Interactive Weather Map New forecast layout! Learn more

10-Day Weather Forecast

Advertisements
Track Severe Weather on mobile